createdAt,value
2023-09-23T00:01:49.862Z,0.9
2023-09-23T00:07:51.902Z,0.9
2023-09-23T00:12:37.834Z,0.9
2023-09-23T00:13:54.179Z,0.8
2023-09-23T00:16:55.208Z,1.4
2023-09-23T00:28:59.299Z,0.8
2023-09-23T00:35:01.347Z,0.9
2023-09-23T00:38:02.367Z,1
2023-09-23T00:42:48.077Z,0.9
2023-09-23T00:47:05.440Z,1
2023-09-23T00:50:06.460Z,1.1
2023-09-23T00:53:07.480Z,1
2023-09-23T00:56:08.504Z,1.1
2023-09-23T01:11:13.619Z,1.2
2023-09-23T01:12:58.331Z,1
2023-09-23T01:14:14.640Z,1
2023-09-23T01:17:15.661Z,1.2
2023-09-23T01:20:16.687Z,0.9
2023-09-23T01:23:17.711Z,1
2023-09-23T01:26:18.737Z,1
2023-09-23T01:29:19.752Z,1.1
2023-09-23T01:32:20.775Z,1.2
2023-09-23T01:38:22.825Z,0.9
2023-09-23T01:41:23.849Z,1
2023-09-23T01:43:08.579Z,0.9
2023-09-23T01:44:24.877Z,1.1
2023-09-23T01:47:25.895Z,1
2023-09-23T01:50:26.923Z,1
2023-09-23T01:53:27.939Z,1.1
2023-09-23T01:56:28.959Z,0.8
2023-09-23T01:59:29.982Z,1
2023-09-23T02:02:31.008Z,0.8
2023-09-23T02:05:32.033Z,1
2023-09-23T02:08:33.054Z,0.9
2023-09-23T02:11:34.077Z,0.9
2023-09-23T02:13:18.822Z,1.1
2023-09-23T02:14:35.104Z,1.1
2023-09-23T02:20:37.149Z,0.9
2023-09-23T02:23:38.174Z,0.9
2023-09-23T02:26:39.194Z,0.9
2023-09-23T02:29:40.214Z,0.9
2023-09-23T02:32:41.243Z,0.9
2023-09-23T02:35:42.264Z,1.2
2023-09-23T02:38:43.280Z,0.9
2023-09-23T02:41:44.305Z,0.8
2023-09-23T02:43:29.074Z,0.9
2023-09-23T02:44:45.326Z,1.1
2023-09-23T02:50:47.378Z,0.9
2023-09-23T02:53:48.397Z,0.9
2023-09-23T02:59:50.449Z,1
2023-09-23T03:02:51.469Z,0.9
2023-09-23T03:08:53.511Z,0.8
2023-09-23T03:11:54.536Z,0.9
2023-09-23T03:17:56.582Z,0.9
2023-09-23T03:20:57.603Z,0.8
2023-09-23T03:23:58.631Z,0.9
2023-09-23T03:30:00.675Z,0.8
2023-09-23T03:33:01.701Z,1.1
2023-09-23T03:36:02.722Z,0.8
2023-09-23T03:39:03.743Z,1
2023-09-23T03:42:04.768Z,0.9
2023-09-23T03:43:49.566Z,1
2023-09-23T03:45:05.791Z,0.9
2023-09-23T03:48:06.818Z,0.9
2023-09-23T03:51:07.840Z,1
2023-09-23T03:54:08.861Z,1.1
2023-09-23T03:57:09.882Z,1
2023-09-23T04:00:10.904Z,1
2023-09-23T04:03:11.933Z,1.3
2023-09-23T04:06:12.955Z,1.1
2023-09-23T04:09:13.976Z,1.1
2023-09-23T04:12:14.996Z,1.3
2023-09-23T04:13:59.819Z,1.3
2023-09-23T04:15:16.019Z,1.1
2023-09-23T04:18:17.046Z,1.4
2023-09-23T04:21:18.069Z,1.1
2023-09-23T04:24:19.087Z,1.2
2023-09-23T04:27:20.112Z,1.3
2023-09-23T04:30:21.130Z,1
2023-09-23T04:33:22.153Z,1.1
2023-09-23T04:36:23.182Z,1.2
2023-09-23T04:39:24.202Z,1
2023-09-23T04:44:10.062Z,1.3
2023-09-23T04:48:27.273Z,1.1
2023-09-23T04:51:28.293Z,1
2023-09-23T04:54:29.317Z,1
2023-09-23T04:57:30.346Z,1
2023-09-23T05:14:20.308Z,1.2
2023-09-23T05:15:36.479Z,1
2023-09-23T05:18:37.504Z,1
2023-09-23T05:21:38.527Z,0.9
2023-09-23T05:24:39.557Z,1.1
2023-09-23T05:27:40.571Z,1.3
2023-09-23T05:30:41.598Z,1
2023-09-23T05:33:42.620Z,1.1
2023-09-23T05:36:43.648Z,1
2023-09-23T05:39:44.664Z,1
2023-09-23T05:42:45.690Z,0.8
2023-09-23T05:45:46.713Z,0.9
2023-09-23T05:48:47.740Z,1.1
2023-09-23T05:51:48.764Z,1.1
2023-09-23T05:54:49.783Z,1.1
2023-09-23T05:57:50.807Z,1.1
2023-09-23T06:00:51.829Z,1
2023-09-23T06:06:53.877Z,1.1
2023-09-23T06:09:54.898Z,1.1
2023-09-23T06:14:40.809Z,0.9
2023-09-23T06:15:56.950Z,1
2023-09-23T06:18:57.973Z,1
2023-09-23T06:21:58.999Z,1
2023-09-23T06:25:00.017Z,0.9
2023-09-23T06:28:01.037Z,1.3
2023-09-23T06:31:02.065Z,1
2023-09-23T06:34:03.084Z,1.4
2023-09-23T06:37:04.113Z,1.2
2023-09-23T06:40:05.134Z,1
2023-09-23T06:43:06.152Z,1.2
2023-09-23T06:44:51.059Z,0.9
2023-09-23T06:46:07.184Z,1.2
2023-09-23T06:49:08.205Z,1
2023-09-23T07:01:12.295Z,0.9
2023-09-23T07:04:13.319Z,1
2023-09-23T07:07:14.348Z,1
2023-09-23T07:13:16.393Z,0.7
2023-09-23T07:15:01.313Z,1
2023-09-23T07:19:18.444Z,0.7
2023-09-23T07:22:19.462Z,0.8
2023-09-23T07:25:20.484Z,0.7
2023-09-23T07:37:24.577Z,0.7
2023-09-23T07:40:25.600Z,0.9
2023-09-23T07:43:26.624Z,0.7
2023-09-23T07:46:27.650Z,0.8
2023-09-23T07:49:28.669Z,1
2023-09-23T07:52:29.694Z,0.8
2023-09-23T07:55:30.716Z,0.9
2023-09-23T07:58:31.734Z,1.1
2023-09-23T08:01:32.757Z,1
2023-09-23T08:04:33.786Z,0.9
2023-09-23T08:10:34.987Z,0.9
2023-09-23T08:12:13.613Z,0.8
2023-09-23T08:13:44.122Z,0.9
2023-09-23T08:15:14.640Z,1.2
2023-09-23T08:16:29.274Z,0.9
2023-09-23T08:17:44.342Z,0.9
2023-09-23T08:19:14.862Z,1
2023-09-23T08:22:15.886Z,0.9
2023-09-23T08:26:47.424Z,1.1
2023-09-23T08:28:17.937Z,0.8
2023-09-23T08:29:48.445Z,0.8
2023-09-23T08:31:18.954Z,1
2023-09-23T08:32:34.024Z,0.8
2023-09-23T08:35:19.616Z,0.8
2023-09-23T08:36:50.129Z,0.8
2023-09-23T08:38:20.640Z,1
2023-09-23T08:39:51.146Z,0.8
2023-09-23T08:42:52.178Z,0.8
2023-09-23T08:47:23.715Z,0.9
2023-09-23T08:48:38.788Z,0.8
2023-09-23T08:49:53.579Z,0.9
2023-09-23T08:51:32.201Z,0.9
2023-09-23T08:53:02.712Z,0.7
2023-09-23T08:54:33.230Z,0.9
2023-09-23T08:56:03.738Z,0.8
2023-09-23T08:57:34.248Z,0.9
2023-09-23T08:59:04.759Z,0.9
2023-09-23T09:00:35.276Z,0.8
2023-09-23T09:02:05.792Z,0.9
2023-09-23T09:03:36.303Z,0.9
2023-09-23T09:04:51.368Z,1
2023-09-23T09:09:15.305Z,1.1
2023-09-23T09:10:45.813Z,0.9
2023-09-23T09:12:16.335Z,0.9
2023-09-23T09:13:46.841Z,0.9
2023-09-23T09:15:17.352Z,1
2023-09-23T09:16:47.864Z,0.8
2023-09-23T09:18:18.375Z,0.9
2023-09-23T09:21:03.959Z,1
2023-09-23T09:22:19.035Z,0.9
2023-09-23T09:25:20.064Z,1.2
2023-09-23T09:26:50.648Z,1.1
2023-09-23T09:29:59.786Z,1
2023-09-23T09:31:30.296Z,1
2023-09-23T09:33:00.812Z,0.9
2023-09-23T09:34:31.321Z,1
2023-09-23T09:36:01.833Z,0.9
2023-09-23T09:37:16.902Z,0.9
2023-09-23T09:40:02.488Z,1
2023-09-23T09:41:33.003Z,0.8
2023-09-23T09:43:03.516Z,0.9
2023-09-23T09:44:34.025Z,1.2
2023-09-23T09:46:04.541Z,0.9
2023-09-23T09:47:35.054Z,1.2
2023-09-23T09:49:05.560Z,1
2023-09-23T09:50:36.078Z,1
2023-09-23T09:52:06.592Z,1.7
2023-09-23T09:53:21.659Z,1
2023-09-23T09:54:36.458Z,0.9
2023-09-23T09:56:15.084Z,0.9
2023-09-23T09:57:45.591Z,1.2
2023-09-23T09:59:16.110Z,0.9
2023-09-23T10:00:46.616Z,0.8
2023-09-23T10:02:17.135Z,0.9
2023-09-23T10:03:47.640Z,0.8
2023-09-23T10:06:48.670Z,0.9
2023-09-23T10:08:19.180Z,1
2023-09-23T10:10:48.889Z,0.9
2023-09-23T10:12:19.400Z,1.2
2023-09-23T10:13:49.918Z,1
2023-09-23T10:18:21.449Z,1.1
2023-09-23T10:21:22.480Z,1
2023-09-23T10:24:23.510Z,0.9
2023-09-23T10:25:38.580Z,0.8
2023-09-23T10:26:53.651Z,1
2023-09-23T10:28:24.166Z,0.9
2023-09-23T10:32:55.702Z,0.9
2023-09-23T10:35:56.728Z,0.9
2023-09-23T10:37:27.238Z,1
2023-09-23T10:40:28.262Z,1.1
2023-09-23T10:41:43.336Z,0.9
2023-09-23T10:42:58.407Z,1.2
2023-09-23T10:49:00.452Z,1
2023-09-23T10:50:30.968Z,1.1
2023-09-23T10:52:01.481Z,0.9
2023-09-23T10:53:31.994Z,1.1
2023-09-23T10:56:33.015Z,1.1
2023-09-23T10:57:48.084Z,1
2023-09-23T10:59:03.155Z,1.1
2023-09-23T11:00:33.673Z,1
2023-09-23T11:03:34.692Z,0.9
2023-09-23T11:07:34.382Z,1
2023-09-23T11:10:35.404Z,1.2
2023-09-23T11:12:54.138Z,1
2023-09-23T11:14:10.113Z,0.9
2023-09-23T11:20:12.152Z,0.9
2023-09-23T11:23:13.179Z,1
2023-09-23T11:26:14.193Z,1.1
2023-09-23T11:29:15.216Z,0.9
2023-09-23T11:35:17.261Z,0.9
2023-09-23T11:38:18.278Z,1.1
2023-09-23T11:41:19.298Z,0.9
2023-09-23T11:43:04.373Z,1.2
2023-09-23T11:47:21.367Z,1
2023-09-23T11:59:25.461Z,1.2
2023-09-23T12:05:27.499Z,1.1
2023-09-23T12:13:14.610Z,1
2023-09-23T12:20:32.624Z,0.9
2023-09-23T12:23:33.656Z,0.8
2023-09-23T12:29:35.693Z,0.8
2023-09-23T12:32:36.720Z,0.7
2023-09-23T12:41:39.789Z,1
2023-09-23T12:43:24.852Z,1
2023-09-23T12:44:40.829Z,0.9
2023-09-23T12:50:42.872Z,1.4
2023-09-23T12:59:13.175Z,0.9
2023-09-23T13:02:14.190Z,1.2
2023-09-23T13:05:15.216Z,0.9
2023-09-23T13:08:16.238Z,1
2023-09-23T13:11:17.260Z,1
2023-09-23T13:13:35.087Z,1.5
2023-09-23T13:14:51.061Z,1
2023-09-23T13:17:52.087Z,0.9
2023-09-23T13:20:53.113Z,1
2023-09-23T13:26:55.152Z,0.9
2023-09-23T13:29:56.171Z,0.7
2023-09-23T13:43:45.325Z,1.2
2023-09-23T13:46:39.409Z,0.9
2023-09-23T13:48:09.918Z,1
2023-09-23T13:49:40.429Z,0.9
2023-09-23T13:51:10.944Z,1
2023-09-23T13:52:41.454Z,0.9
2023-09-23T13:54:11.963Z,1.1
2023-09-23T13:55:42.477Z,1.4
2023-09-23T13:57:12.992Z,1
2023-09-23T13:58:43.499Z,1
2023-09-23T14:01:44.519Z,0.8
2023-09-23T14:06:16.059Z,1
2023-09-23T14:07:46.572Z,0.9
2023-09-23T14:10:47.592Z,0.9
2023-09-23T14:12:18.108Z,0.9
2023-09-23T14:13:48.619Z,0.9
2023-09-23T14:15:03.698Z,1
2023-09-23T14:17:49.268Z,0.9
2023-09-23T14:19:19.787Z,0.9
2023-09-23T14:24:49.984Z,1
2023-09-23T14:27:51.011Z,0.9
2023-09-23T14:30:09.738Z,0.9
2023-09-23T14:34:26.741Z,0.8
2023-09-23T14:37:27.762Z,0.6
2023-09-23T14:40:28.782Z,0.9
2023-09-23T14:43:29.810Z,0.8
2023-09-23T14:46:30.832Z,1
2023-09-23T14:49:31.853Z,0.7
2023-09-23T14:52:32.879Z,0.6
2023-09-23T14:55:33.897Z,0.8
2023-09-23T14:58:34.920Z,0.8
2023-09-23T15:07:37.985Z,0.8
2023-09-23T15:10:39.002Z,0.7
2023-09-23T15:13:40.027Z,0.8
2023-09-23T15:16:41.052Z,0.7
2023-09-23T15:19:42.075Z,0.6
2023-09-23T15:22:43.092Z,0.8
2023-09-23T15:25:02.572Z,0.8
2023-09-23T15:29:19.576Z,0.7
2023-09-23T15:35:21.622Z,0.8
2023-09-23T15:40:50.899Z,0.7
2023-09-23T15:43:51.921Z,0.6
2023-09-23T15:49:53.974Z,0.7
2023-09-23T15:52:54.996Z,0.9
2023-09-23T15:55:12.824Z,0.9
2023-09-23T15:56:28.283Z,0.7
2023-09-23T15:58:06.901Z,1.2
2023-09-23T16:01:07.924Z,0.7
2023-09-23T16:04:08.948Z,0.7
2023-09-23T16:05:39.459Z,0.8
2023-09-23T16:07:09.978Z,0.6
2023-09-23T16:08:40.486Z,0.8
2023-09-23T16:11:41.508Z,0.5
2023-09-23T16:13:12.022Z,0.8
2023-09-23T16:14:42.536Z,1.1
2023-09-23T16:16:13.050Z,0.8
2023-09-23T16:17:43.561Z,0.7
2023-09-23T16:19:14.080Z,0.9
2023-09-23T16:20:44.592Z,0.8
2023-09-23T16:22:15.099Z,0.8
2023-09-23T16:23:45.611Z,0.8
2023-09-23T16:25:16.129Z,0.7
2023-09-23T16:26:31.196Z,0.8
2023-09-23T16:30:46.853Z,0.8
2023-09-23T16:32:17.370Z,0.9
2023-09-23T16:35:18.392Z,0.9
2023-09-23T16:36:48.902Z,0.8
2023-09-23T16:42:35.518Z,0.9
2023-09-23T16:46:51.606Z,1.1
2023-09-23T16:48:22.127Z,0.9
2023-09-23T16:55:54.760Z,0.9
2023-09-23T16:57:33.385Z,1.2
2023-09-23T16:58:48.455Z,1.2
2023-09-23T17:00:03.090Z,1.5
2023-09-23T17:01:33.606Z,1.3
2023-09-23T17:06:05.137Z,1.2
2023-09-23T17:09:06.165Z,1.3
2023-09-23T17:10:36.757Z,1.5
2023-09-23T17:13:45.892Z,1.3
2023-09-23T17:15:00.521Z,1.5
2023-09-23T17:16:15.600Z,1.4
2023-09-23T17:17:46.109Z,1.3
2023-09-23T17:19:16.618Z,1.4
2023-09-23T17:23:48.157Z,2
2023-09-23T17:26:49.180Z,2.3
2023-09-23T17:28:19.698Z,2.2
2023-09-23T17:29:50.288Z,1.6
2023-09-23T17:31:05.365Z,1.5
2023-09-23T17:33:50.509Z,1.6
2023-09-23T17:35:21.023Z,2
2023-09-23T17:38:22.044Z,1.9
2023-09-23T17:39:52.555Z,1.8
2023-09-23T17:41:23.072Z,1.6
2023-09-23T17:44:24.177Z,1.8
2023-09-23T17:48:32.611Z,1.6
2023-09-23T17:50:03.123Z,1.5
2023-09-23T17:51:33.634Z,2
2023-09-23T17:53:04.143Z,1.9
2023-09-23T17:54:34.663Z,2.9
2023-09-23T17:59:06.195Z,2.5
2023-09-23T18:02:07.217Z,2
2023-09-23T18:03:22.342Z,1.8
2023-09-23T18:04:37.469Z,2.1
2023-09-23T18:16:41.568Z,2.3
2023-09-23T18:19:27.204Z,2.3
2023-09-23T18:22:20.682Z,2.5
2023-09-23T18:31:23.748Z,2.2
2023-09-23T18:42:57.075Z,2.1
2023-09-23T18:45:58.181Z,1.9
2023-09-23T18:47:36.801Z,2
2023-09-23T18:59:10.135Z,2.2
2023-09-23T19:13:44.485Z,2.4
2023-09-23T19:19:46.533Z,2.6
2023-09-23T19:22:47.557Z,2.3
2023-09-23T19:29:49.347Z,2.2
2023-09-23T19:31:19.855Z,2.4
2023-09-23T19:34:20.878Z,2.2
2023-09-23T19:35:51.395Z,2.6
2023-09-23T19:38:52.422Z,2.4
2023-09-23T19:40:07.543Z,2.4
2023-09-23T19:41:22.669Z,2.4
2023-09-23T19:42:53.183Z,2.7
2023-09-23T19:50:25.742Z,2.5
2023-09-23T19:54:57.282Z,2.9
2023-09-23T19:56:12.402Z,3.2
2023-09-23T19:57:27.530Z,3.1
2023-09-23T19:58:58.126Z,3.6
2023-09-23T20:06:38.796Z,3.3
2023-09-23T20:08:09.311Z,2.9
2023-09-23T20:12:25.458Z,2.6
2023-09-23T20:15:11.094Z,2.8
2023-09-23T20:18:12.123Z,3
2023-09-23T20:19:42.718Z,3.3
2023-09-23T20:21:21.334Z,2.8
2023-09-23T20:28:38.515Z,3.6
2023-09-23T20:29:53.640Z,3.2
2023-09-23T20:32:54.661Z,3
2023-09-23T20:35:55.691Z,3
2023-09-23T20:37:26.197Z,3.2
2023-09-23T20:38:56.715Z,3
2023-09-23T20:40:27.229Z,3.3
2023-09-23T20:44:43.374Z,3.1
2023-09-23T20:47:29.012Z,2.9
2023-09-23T20:48:59.523Z,2.8
2023-09-23T20:50:30.037Z,2.8
2023-09-23T20:52:00.634Z,2.8
2023-09-23T20:58:10.789Z,2.7
2023-09-23T21:00:56.422Z,3.1
2023-09-23T21:02:11.552Z,3.1
2023-09-23T21:03:42.061Z,2.7
2023-09-23T21:05:12.576Z,2.9
2023-09-23T21:06:43.091Z,2.6
2023-09-23T21:09:44.112Z,2.5
2023-09-23T21:11:14.626Z,2.8
2023-09-23T21:12:45.138Z,2.8
2023-09-23T21:14:15.653Z,2.6
2023-09-23T21:15:46.162Z,3.1
2023-09-23T21:17:01.291Z,3
2023-09-23T21:18:15.979Z,2.8
2023-09-23T21:19:46.484Z,2.6
2023-09-23T21:21:17.004Z,2.9
2023-09-23T21:22:47.517Z,2.7
2023-09-23T21:24:18.028Z,2.7
2023-09-23T21:41:53.404Z,4
2023-09-23T21:46:24.937Z,3.5
2023-09-23T21:49:10.582Z,3.7
2023-09-23T21:50:25.706Z,3.4
2023-09-23T21:51:56.222Z,3.4
2023-09-23T21:54:57.240Z,3.5
2023-09-23T21:56:27.752Z,3.4
2023-09-23T21:57:58.265Z,3.4
2023-09-23T21:59:28.781Z,3.1
2023-09-23T22:00:59.298Z,3.2
2023-09-23T22:02:29.808Z,3.1
2023-09-23T22:05:15.092Z,3
2023-09-23T22:09:31.236Z,2.9
2023-09-23T22:11:01.749Z,2.7
2023-09-23T22:12:32.263Z,3
2023-09-23T22:14:02.776Z,2.6
2023-09-23T22:15:33.287Z,2.8
2023-09-23T22:18:34.312Z,2.7
2023-09-23T22:20:04.823Z,2.6
2023-09-23T22:21:19.949Z,2.9
2023-09-23T22:22:35.075Z,2.6
2023-09-23T22:24:05.591Z,3
2023-09-23T22:25:36.108Z,2.8
2023-09-23T22:27:06.619Z,2.7
2023-09-23T22:28:37.133Z,2.7
2023-09-23T22:30:07.646Z,2.8
2023-09-23T22:31:38.154Z,2.5
2023-09-23T22:33:08.665Z,2.7
2023-09-23T22:36:17.879Z,2.8
2023-09-23T22:37:32.569Z,2.6
2023-09-23T22:38:47.418Z,2.6
2023-09-23T22:41:56.558Z,2.4
2023-09-23T22:43:27.064Z,2.3
2023-09-23T22:44:57.577Z,2.3
2023-09-23T22:46:28.091Z,2.4
2023-09-23T22:47:58.608Z,2.3
2023-09-23T22:53:45.274Z,2.6
2023-09-23T22:55:00.400Z,2.5
2023-09-23T22:56:30.909Z,2.6
2023-09-23T22:58:01.508Z,2.4
2023-09-23T22:59:40.129Z,2.8
2023-09-23T23:01:10.637Z,2.6
2023-09-23T23:04:11.664Z,2.6
2023-09-23T23:05:42.178Z,2.8
2023-09-23T23:07:12.684Z,2.6
2023-09-23T23:08:43.200Z,2.4
2023-09-23T23:12:44.044Z,2.5
2023-09-23T23:14:22.667Z,2.8
2023-09-23T23:17:23.691Z,2.2
2023-09-23T23:18:54.210Z,2.7
2023-09-23T23:23:25.747Z,2.5
2023-09-23T23:26:11.387Z,2.3
2023-09-23T23:28:57.023Z,2.6
2023-09-23T23:33:28.557Z,2.5
2023-09-23T23:38:00.097Z,2.9
2023-09-23T23:39:30.611Z,2.7
2023-09-23T23:41:01.116Z,2.7
2023-09-23T23:42:16.247Z,3.4
2023-09-23T23:46:32.394Z,2.8
2023-09-23T23:48:02.912Z,2.6
2023-09-23T23:52:34.451Z,2.8
2023-09-23T23:55:35.471Z,2.7
2023-09-23T23:58:21.114Z,2.5
2023-09-23T23:59:36.237Z,2.7
